sensor_id;sensor_type;location;lat;lon;timestamp;P1;durP1;ratioP1;P2;durP2;ratioP2
7338;SDS011;33747;49.524;8.390;2023-05-03T00:02:24;10.43;;;5.68;;
7338;SDS011;33747;49.524;8.390;2023-05-03T00:04:53;11.07;;;5.55;;
7338;SDS011;33747;49.524;8.390;2023-05-03T00:07:18;11.70;;;5.68;;
7338;SDS011;33747;49.524;8.390;2023-05-03T00:09:44;8.52;;;5.22;;
7338;SDS011;33747;49.524;8.390;2023-05-03T00:12:10;9.98;;;4.85;;
7338;SDS011;33747;49.524;8.390;2023-05-03T00:14:35;10.20;;;4.80;;
7338;SDS011;33747;49.524;8.390;2023-05-03T00:17:00;12.90;;;5.70;;
7338;SDS011;33747;49.524;8.390;2023-05-03T00:19:26;9.27;;;5.18;;
7338;SDS011;33747;49.524;8.390;2023-05-03T00:21:53;12.20;;;5.07;;
7338;SDS011;33747;49.524;8.390;2023-05-03T00:24:19;9.00;;;5.45;;
7338;SDS011;33747;49.524;8.390;2023-05-03T00:26:44;12.02;;;5.13;;
7338;SDS011;33747;49.524;8.390;2023-05-03T00:29:10;14.88;;;5.40;;
7338;SDS011;33747;49.524;8.390;2023-05-03T00:31:35;12.25;;;5.65;;
7338;SDS011;33747;49.524;8.390;2023-05-03T00:34:01;11.25;;;5.70;;
7338;SDS011;33747;49.524;8.390;2023-05-03T00:36:26;13.05;;;5.38;;
7338;SDS011;33747;49.524;8.390;2023-05-03T00:38:52;9.45;;;5.47;;
7338;SDS011;33747;49.524;8.390;2023-05-03T00:41:17;10.98;;;5.32;;
7338;SDS011;33747;49.524;8.390;2023-05-03T00:43:43;14.13;;;5.80;;
7338;SDS011;33747;49.524;8.390;2023-05-03T00:46:08;11.73;;;5.80;;
7338;SDS011;33747;49.524;8.390;2023-05-03T00:48:34;12.15;;;5.05;;
7338;SDS011;33747;49.524;8.390;2023-05-03T00:50:59;14.88;;;5.82;;
7338;SDS011;33747;49.524;8.390;2023-05-03T00:53:25;11.90;;;5.65;;
7338;SDS011;33747;49.524;8.390;2023-05-03T00:55:51;17.23;;;5.88;;
7338;SDS011;33747;49.524;8.390;2023-05-03T00:58:17;12.50;;;6.22;;
7338;SDS011;33747;49.524;8.390;2023-05-03T01:00:43;10.70;;;5.72;;
7338;SDS011;33747;49.524;8.390;2023-05-03T01:03:08;13.05;;;6.25;;
7338;SDS011;33747;49.524;8.390;2023-05-03T01:05:38;16.77;;;6.38;;
7338;SDS011;33747;49.524;8.390;2023-05-03T01:08:24;12.80;;;5.80;;
7338;SDS011;33747;49.524;8.390;2023-05-03T01:10:56;10.77;;;6.10;;
7338;SDS011;33747;49.524;8.390;2023-05-03T01:13:43;10.43;;;5.53;;
7338;SDS011;33747;49.524;8.390;2023-05-03T01:16:23;15.48;;;5.93;;
7338;SDS011;33747;49.524;8.390;2023-05-03T01:18:51;20.75;;;7.20;;
7338;SDS011;33747;49.524;8.390;2023-05-03T01:21:18;13.50;;;6.18;;
7338;SDS011;33747;49.524;8.390;2023-05-03T01:23:54;10.98;;;6.07;;
7338;SDS011;33747;49.524;8.390;2023-05-03T01:26:25;16.10;;;6.55;;
7338;SDS011;33747;49.524;8.390;2023-05-03T01:28:51;13.98;;;6.32;;
7338;SDS011;33747;49.524;8.390;2023-05-03T01:31:19;18.92;;;6.43;;
7338;SDS011;33747;49.524;8.390;2023-05-03T01:36:49;12.40;;;6.35;;
7338;SDS011;33747;49.524;8.390;2023-05-03T01:39:22;15.55;;;6.25;;
7338;SDS011;33747;49.524;8.390;2023-05-03T01:41:52;16.30;;;6.57;;
7338;SDS011;33747;49.524;8.390;2023-05-03T01:44:18;17.40;;;5.95;;
7338;SDS011;33747;49.524;8.390;2023-05-03T01:46:44;15.73;;;5.60;;
7338;SDS011;33747;49.524;8.390;2023-05-03T01:49:09;15.88;;;6.60;;
7338;SDS011;33747;49.524;8.390;2023-05-03T01:51:35;13.90;;;5.45;;
7338;SDS011;33747;49.524;8.390;2023-05-03T01:54:00;16.42;;;6.03;;
7338;SDS011;33747;49.524;8.390;2023-05-03T01:56:26;9.45;;;5.72;;
7338;SDS011;33747;49.524;8.390;2023-05-03T01:58:51;11.38;;;5.63;;
7338;SDS011;33747;49.524;8.390;2023-05-03T02:01:17;17.27;;;6.72;;
7338;SDS011;33747;49.524;8.390;2023-05-03T02:03:42;10.77;;;6.18;;
7338;SDS011;33747;49.524;8.390;2023-05-03T02:06:07;12.27;;;6.13;;
7338;SDS011;33747;49.524;8.390;2023-05-03T02:08:33;15.00;;;6.13;;
7338;SDS011;33747;49.524;8.390;2023-05-03T02:10:58;16.80;;;6.88;;
7338;SDS011;33747;49.524;8.390;2023-05-03T02:13:24;8.07;;;5.85;;
7338;SDS011;33747;49.524;8.390;2023-05-03T02:15:49;14.18;;;6.55;;
7338;SDS011;33747;49.524;8.390;2023-05-03T02:18:15;12.13;;;6.55;;
7338;SDS011;33747;49.524;8.390;2023-05-03T02:20:45;12.32;;;6.90;;
7338;SDS011;33747;49.524;8.390;2023-05-03T02:23:10;16.95;;;6.05;;
7338;SDS011;33747;49.524;8.390;2023-05-03T02:25:36;9.35;;;6.40;;
7338;SDS011;33747;49.524;8.390;2023-05-03T02:28:01;11.38;;;6.32;;
7338;SDS011;33747;49.524;8.390;2023-05-03T02:30:27;8.90;;;6.03;;
7338;SDS011;33747;49.524;8.390;2023-05-03T02:32:52;14.68;;;5.82;;
7338;SDS011;33747;49.524;8.390;2023-05-03T02:35:18;10.50;;;6.22;;
7338;SDS011;33747;49.524;8.390;2023-05-03T02:37:43;10.68;;;5.97;;
7338;SDS011;33747;49.524;8.390;2023-05-03T02:40:09;17.38;;;6.60;;
7338;SDS011;33747;49.524;8.390;2023-05-03T02:42:34;9.07;;;6.57;;
7338;SDS011;33747;49.524;8.390;2023-05-03T02:45:00;16.60;;;7.07;;
7338;SDS011;33747;49.524;8.390;2023-05-03T02:47:25;13.10;;;6.30;;
7338;SDS011;33747;49.524;8.390;2023-05-03T02:49:51;12.13;;;7.15;;
7338;SDS011;33747;49.524;8.390;2023-05-03T02:52:16;12.35;;;5.88;;
7338;SDS011;33747;49.524;8.390;2023-05-03T02:54:42;17.13;;;6.55;;
7338;SDS011;33747;49.524;8.390;2023-05-03T02:57:07;14.75;;;6.30;;
7338;SDS011;33747;49.524;8.390;2023-05-03T02:59:33;10.73;;;6.68;;
7338;SDS011;33747;49.524;8.390;2023-05-03T03:01:58;12.38;;;6.32;;
7338;SDS011;33747;49.524;8.390;2023-05-03T03:04:24;14.30;;;6.90;;
7338;SDS011;33747;49.524;8.390;2023-05-03T03:06:49;14.15;;;6.93;;
7338;SDS011;33747;49.524;8.390;2023-05-03T03:09:17;14.30;;;5.93;;
7338;SDS011;33747;49.524;8.390;2023-05-03T03:11:43;11.73;;;6.53;;
7338;SDS011;33747;49.524;8.390;2023-05-03T03:14:08;12.85;;;6.50;;
7338;SDS011;33747;49.524;8.390;2023-05-03T03:16:33;12.38;;;6.38;;
7338;SDS011;33747;49.524;8.390;2023-05-03T03:18:59;14.00;;;6.43;;
7338;SDS011;33747;49.524;8.390;2023-05-03T03:21:24;12.98;;;5.85;;
7338;SDS011;33747;49.524;8.390;2023-05-03T03:23:53;15.48;;;6.68;;
7338;SDS011;33747;49.524;8.390;2023-05-03T03:26:18;14.68;;;6.75;;
7338;SDS011;33747;49.524;8.390;2023-05-03T03:28:43;11.55;;;6.43;;
7338;SDS011;33747;49.524;8.390;2023-05-03T03:31:09;11.80;;;6.38;;
7338;SDS011;33747;49.524;8.390;2023-05-03T03:33:34;14.95;;;6.32;;
7338;SDS011;33747;49.524;8.390;2023-05-03T03:36:00;14.82;;;6.70;;
7338;SDS011;33747;49.524;8.390;2023-05-03T03:38:25;11.38;;;6.40;;
7338;SDS011;33747;49.524;8.390;2023-05-03T03:40:51;14.52;;;6.28;;
7338;SDS011;33747;49.524;8.390;2023-05-03T03:43:16;15.98;;;5.72;;
7338;SDS011;33747;49.524;8.390;2023-05-03T03:45:42;11.38;;;6.28;;
7338;SDS011;33747;49.524;8.390;2023-05-03T03:48:07;21.52;;;6.35;;
7338;SDS011;33747;49.524;8.390;2023-05-03T03:50:32;12.60;;;6.90;;
7338;SDS011;33747;49.524;8.390;2023-05-03T03:52:58;12.52;;;6.30;;
7338;SDS011;33747;49.524;8.390;2023-05-03T03:55:23;14.55;;;6.10;;
7338;SDS011;33747;49.524;8.390;2023-05-03T03:57:49;15.35;;;6.32;;
7338;SDS011;33747;49.524;8.390;2023-05-03T04:00:14;14.15;;;6.47;;
7338;SDS011;33747;49.524;8.390;2023-05-03T04:02:40;12.13;;;6.10;;
7338;SDS011;33747;49.524;8.390;2023-05-03T04:05:06;12.15;;;5.78;;
7338;SDS011;33747;49.524;8.390;2023-05-03T04:07:32;14.05;;;6.15;;
7338;SDS011;33747;49.524;8.390;2023-05-03T04:09:57;16.58;;;6.55;;
7338;SDS011;33747;49.524;8.390;2023-05-03T04:12:22;20.35;;;6.65;;
7338;SDS011;33747;49.524;8.390;2023-05-03T04:14:48;12.57;;;6.32;;
7338;SDS011;33747;49.524;8.390;2023-05-03T04:17:14;19.60;;;7.07;;
7338;SDS011;33747;49.524;8.390;2023-05-03T04:19:39;19.45;;;7.80;;
7338;SDS011;33747;49.524;8.390;2023-05-03T04:22:04;14.68;;;6.78;;
7338;SDS011;33747;49.524;8.390;2023-05-03T04:24:30;12.60;;;6.43;;
7338;SDS011;33747;49.524;8.390;2023-05-03T04:26:55;18.73;;;7.55;;
7338;SDS011;33747;49.524;8.390;2023-05-03T04:29:23;18.80;;;7.07;;
7338;SDS011;33747;49.524;8.390;2023-05-03T04:31:48;13.85;;;6.65;;
7338;SDS011;33747;49.524;8.390;2023-05-03T04:34:13;16.00;;;7.78;;
7338;SDS011;33747;49.524;8.390;2023-05-03T04:36:39;10.75;;;6.72;;
7338;SDS011;33747;49.524;8.390;2023-05-03T04:39:06;17.35;;;6.97;;
7338;SDS011;33747;49.524;8.390;2023-05-03T04:41:32;16.25;;;7.05;;
7338;SDS011;33747;49.524;8.390;2023-05-03T04:43:57;15.63;;;6.50;;
7338;SDS011;33747;49.524;8.390;2023-05-03T04:46:23;12.75;;;6.80;;
7338;SDS011;33747;49.524;8.390;2023-05-03T04:48:48;14.98;;;6.65;;
7338;SDS011;33747;49.524;8.390;2023-05-03T04:51:14;17.70;;;6.97;;
7338;SDS011;33747;49.524;8.390;2023-05-03T04:53:39;18.40;;;6.72;;
7338;SDS011;33747;49.524;8.390;2023-05-03T04:56:05;10.75;;;5.93;;
7338;SDS011;33747;49.524;8.390;2023-05-03T04:58:31;11.02;;;5.90;;
7338;SDS011;33747;49.524;8.390;2023-05-03T05:00:56;13.23;;;6.70;;
7338;SDS011;33747;49.524;8.390;2023-05-03T05:03:22;10.75;;;6.00;;
7338;SDS011;33747;49.524;8.390;2023-05-03T05:05:47;13.65;;;6.22;;
7338;SDS011;33747;49.524;8.390;2023-05-03T05:08:13;10.23;;;5.93;;
7338;SDS011;33747;49.524;8.390;2023-05-03T05:10:41;14.70;;;6.95;;
7338;SDS011;33747;49.524;8.390;2023-05-03T05:13:07;12.68;;;6.65;;
7338;SDS011;33747;49.524;8.390;2023-05-03T05:15:32;20.88;;;6.38;;
7338;SDS011;33747;49.524;8.390;2023-05-03T05:17:58;14.80;;;5.78;;
7338;SDS011;33747;49.524;8.390;2023-05-03T05:20:23;10.27;;;5.80;;
7338;SDS011;33747;49.524;8.390;2023-05-03T05:22:49;14.65;;;6.22;;
7338;SDS011;33747;49.524;8.390;2023-05-03T05:25:14;15.15;;;5.70;;
7338;SDS011;33747;49.524;8.390;2023-05-03T05:27:40;11.18;;;5.82;;
7338;SDS011;33747;49.524;8.390;2023-05-03T05:30:05;11.95;;;5.63;;
7338;SDS011;33747;49.524;8.390;2023-05-03T05:32:31;13.75;;;5.60;;
7338;SDS011;33747;49.524;8.390;2023-05-03T05:34:56;11.52;;;5.65;;
7338;SDS011;33747;49.524;8.390;2023-05-03T05:37:22;12.80;;;6.60;;
7338;SDS011;33747;49.524;8.390;2023-05-03T05:39:48;9.40;;;5.43;;
7338;SDS011;33747;49.524;8.390;2023-05-03T05:42:14;8.35;;;4.88;;
7338;SDS011;33747;49.524;8.390;2023-05-03T05:44:39;8.90;;;5.40;;
7338;SDS011;33747;49.524;8.390;2023-05-03T05:47:05;11.23;;;5.35;;
7338;SDS011;33747;49.524;8.390;2023-05-03T05:49:30;11.15;;;5.38;;
7338;SDS011;33747;49.524;8.390;2023-05-03T05:51:56;20.50;;;5.70;;
7338;SDS011;33747;49.524;8.390;2023-05-03T05:54:21;17.42;;;5.47;;
7338;SDS011;33747;49.524;8.390;2023-05-03T05:56:47;11.77;;;5.55;;
7338;SDS011;33747;49.524;8.390;2023-05-03T05:59:15;15.05;;;4.78;;
7338;SDS011;33747;49.524;8.390;2023-05-03T06:01:40;13.80;;;5.32;;
7338;SDS011;33747;49.524;8.390;2023-05-03T06:04:08;17.90;;;4.28;;
7338;SDS011;33747;49.524;8.390;2023-05-03T06:06:34;13.07;;;5.07;;
7338;SDS011;33747;49.524;8.390;2023-05-03T06:09:00;11.77;;;5.13;;
7338;SDS011;33747;49.524;8.390;2023-05-03T06:11:25;10.00;;;5.18;;
7338;SDS011;33747;49.524;8.390;2023-05-03T06:13:51;17.65;;;5.38;;
7338;SDS011;33747;49.524;8.390;2023-05-03T06:16:16;13.10;;;5.38;;
7338;SDS011;33747;49.524;8.390;2023-05-03T06:18:42;18.30;;;5.60;;
7338;SDS011;33747;49.524;8.390;2023-05-03T06:21:07;13.57;;;4.90;;
7338;SDS011;33747;49.524;8.390;2023-05-03T06:23:34;11.32;;;4.70;;
7338;SDS011;33747;49.524;8.390;2023-05-03T06:26:01;15.55;;;5.15;;
7338;SDS011;33747;49.524;8.390;2023-05-03T06:28:27;10.88;;;4.80;;
7338;SDS011;33747;49.524;8.390;2023-05-03T06:30:53;11.10;;;4.65;;
7338;SDS011;33747;49.524;8.390;2023-05-03T06:33:18;14.75;;;4.80;;
7338;SDS011;33747;49.524;8.390;2023-05-03T06:35:43;14.38;;;4.55;;
7338;SDS011;33747;49.524;8.390;2023-05-03T06:38:11;8.32;;;5.10;;
7338;SDS011;33747;49.524;8.390;2023-05-03T06:40:36;10.25;;;4.70;;
7338;SDS011;33747;49.524;8.390;2023-05-03T06:43:02;13.13;;;4.90;;
7338;SDS011;33747;49.524;8.390;2023-05-03T06:45:27;11.00;;;4.53;;
7338;SDS011;33747;49.524;8.390;2023-05-03T06:47:53;16.30;;;5.25;;
7338;SDS011;33747;49.524;8.390;2023-05-03T06:50:18;15.90;;;4.97;;
7338;SDS011;33747;49.524;8.390;2023-05-03T06:52:44;12.70;;;4.07;;
7338;SDS011;33747;49.524;8.390;2023-05-03T06:55:10;14.02;;;4.72;;
7338;SDS011;33747;49.524;8.390;2023-05-03T06:57:35;8.75;;;5.32;;
7338;SDS011;33747;49.524;8.390;2023-05-03T07:00:01;7.07;;;4.30;;
7338;SDS011;33747;49.524;8.390;2023-05-03T07:02:31;9.85;;;4.65;;
7338;SDS011;33747;49.524;8.390;2023-05-03T07:04:56;11.43;;;5.18;;
7338;SDS011;33747;49.524;8.390;2023-05-03T07:07:22;9.25;;;4.38;;
7338;SDS011;33747;49.524;8.390;2023-05-03T07:09:47;10.88;;;3.95;;
7338;SDS011;33747;49.524;8.390;2023-05-03T07:12:13;16.33;;;4.68;;
7338;SDS011;33747;49.524;8.390;2023-05-03T07:14:38;8.68;;;4.63;;
7338;SDS011;33747;49.524;8.390;2023-05-03T07:17:04;14.00;;;4.80;;
7338;SDS011;33747;49.524;8.390;2023-05-03T07:19:29;9.32;;;4.72;;
7338;SDS011;33747;49.524;8.390;2023-05-03T07:21:56;15.27;;;4.65;;
7338;SDS011;33747;49.524;8.390;2023-05-03T07:24:21;10.10;;;4.78;;
7338;SDS011;33747;49.524;8.390;2023-05-03T07:26:48;12.48;;;5.40;;
7338;SDS011;33747;49.524;8.390;2023-05-03T07:29:14;14.60;;;4.85;;
7338;SDS011;33747;49.524;8.390;2023-05-03T07:31:40;9.60;;;5.13;;
7338;SDS011;33747;49.524;8.390;2023-05-03T07:34:06;13.30;;;4.63;;
7338;SDS011;33747;49.524;8.390;2023-05-03T07:36:31;16.08;;;5.15;;
7338;SDS011;33747;49.524;8.390;2023-05-03T07:38:56;10.25;;;5.35;;
7338;SDS011;33747;49.524;8.390;2023-05-03T07:41:22;11.43;;;5.47;;
7338;SDS011;33747;49.524;8.390;2023-05-03T07:43:48;13.07;;;5.72;;
7338;SDS011;33747;49.524;8.390;2023-05-03T07:46:13;11.85;;;5.15;;
7338;SDS011;33747;49.524;8.390;2023-05-03T07:48:39;11.73;;;5.38;;
7338;SDS011;33747;49.524;8.390;2023-05-03T07:51:04;10.63;;;5.20;;
7338;SDS011;33747;49.524;8.390;2023-05-03T07:53:30;12.90;;;6.05;;
7338;SDS011;33747;49.524;8.390;2023-05-03T07:55:55;15.77;;;6.07;;
7338;SDS011;33747;49.524;8.390;2023-05-03T07:58:21;10.07;;;5.78;;
7338;SDS011;33747;49.524;8.390;2023-05-03T08:00:46;19.00;;;5.90;;
7338;SDS011;33747;49.524;8.390;2023-05-03T08:03:12;8.43;;;5.60;;
7338;SDS011;33747;49.524;8.390;2023-05-03T08:05:37;10.98;;;5.53;;
7338;SDS011;33747;49.524;8.390;2023-05-03T08:08:03;14.48;;;6.18;;
7338;SDS011;33747;49.524;8.390;2023-05-03T08:10:29;8.60;;;5.30;;
7338;SDS011;33747;49.524;8.390;2023-05-03T08:12:54;23.08;;;6.57;;
7338;SDS011;33747;49.524;8.390;2023-05-03T08:15:20;11.80;;;5.82;;
7338;SDS011;33747;49.524;8.390;2023-05-03T08:17:45;12.77;;;5.82;;
7338;SDS011;33747;49.524;8.390;2023-05-03T08:20:11;12.05;;;5.85;;
7338;SDS011;33747;49.524;8.390;2023-05-03T08:22:37;13.88;;;5.88;;
7338;SDS011;33747;49.524;8.390;2023-05-03T08:25:04;11.15;;;5.85;;
7338;SDS011;33747;49.524;8.390;2023-05-03T08:27:30;16.08;;;6.13;;
7338;SDS011;33747;49.524;8.390;2023-05-03T08:29:55;13.80;;;5.68;;
7338;SDS011;33747;49.524;8.390;2023-05-03T08:32:21;10.15;;;5.50;;
7338;SDS011;33747;49.524;8.390;2023-05-03T08:34:48;14.32;;;5.88;;
7338;SDS011;33747;49.524;8.390;2023-05-03T08:37:13;16.02;;;6.43;;
7338;SDS011;33747;49.524;8.390;2023-05-03T08:39:39;7.57;;;5.13;;
7338;SDS011;33747;49.524;8.390;2023-05-03T08:42:07;12.27;;;5.78;;
7338;SDS011;33747;49.524;8.390;2023-05-03T08:44:35;10.45;;;5.78;;
7338;SDS011;33747;49.524;8.390;2023-05-03T08:47:01;12.27;;;5.78;;
7338;SDS011;33747;49.524;8.390;2023-05-03T08:49:28;13.45;;;5.78;;
7338;SDS011;33747;49.524;8.390;2023-05-03T08:51:55;12.10;;;5.72;;
7338;SDS011;33747;49.524;8.390;2023-05-03T08:54:21;15.50;;;6.35;;
7338;SDS011;33747;49.524;8.390;2023-05-03T08:56:48;9.32;;;6.00;;
7338;SDS011;33747;49.524;8.390;2023-05-03T08:59:13;10.80;;;5.95;;
7338;SDS011;33747;49.524;8.390;2023-05-03T09:01:41;16.83;;;6.82;;
7338;SDS011;33747;49.524;8.390;2023-05-03T09:04:06;11.65;;;6.03;;
7338;SDS011;33747;49.524;8.390;2023-05-03T09:06:32;11.15;;;5.93;;
7338;SDS011;33747;49.524;8.390;2023-05-03T09:08:59;12.77;;;5.82;;
7338;SDS011;33747;49.524;8.390;2023-05-03T09:11:26;10.15;;;5.53;;
7338;SDS011;33747;49.524;8.390;2023-05-03T09:13:53;12.85;;;5.72;;
7338;SDS011;33747;49.524;8.390;2023-05-03T09:16:33;12.52;;;5.85;;
7338;SDS011;33747;49.524;8.390;2023-05-03T09:18:59;10.77;;;5.75;;
7338;SDS011;33747;49.524;8.390;2023-05-03T09:21:25;9.80;;;5.63;;
7338;SDS011;33747;49.524;8.390;2023-05-03T09:23:50;9.90;;;5.60;;
7338;SDS011;33747;49.524;8.390;2023-05-03T09:26:28;9.15;;;5.50;;
7338;SDS011;33747;49.524;8.390;2023-05-03T09:28:59;11.40;;;5.93;;
7338;SDS011;33747;49.524;8.390;2023-05-03T09:31:26;7.90;;;5.50;;
7338;SDS011;33747;49.524;8.390;2023-05-03T09:33:53;12.95;;;6.00;;
7338;SDS011;33747;49.524;8.390;2023-05-03T09:36:18;9.13;;;5.00;;
7338;SDS011;33747;49.524;8.390;2023-05-03T09:38:44;15.38;;;6.13;;
7338;SDS011;33747;49.524;8.390;2023-05-03T09:41:09;14.07;;;5.35;;
7338;SDS011;33747;49.524;8.390;2023-05-03T09:43:35;8.23;;;5.45;;
7338;SDS011;33747;49.524;8.390;2023-05-03T09:46:12;14.18;;;5.95;;
7338;SDS011;33747;49.524;8.390;2023-05-03T09:48:38;9.10;;;5.65;;
7338;SDS011;33747;49.524;8.390;2023-05-03T09:51:04;7.85;;;5.45;;
7338;SDS011;33747;49.524;8.390;2023-05-03T09:53:31;11.77;;;5.60;;
7338;SDS011;33747;49.524;8.390;2023-05-03T09:55:56;14.02;;;5.32;;
7338;SDS011;33747;49.524;8.390;2023-05-03T09:58:23;12.65;;;5.63;;
7338;SDS011;33747;49.524;8.390;2023-05-03T10:00:50;7.07;;;5.35;;
7338;SDS011;33747;49.524;8.390;2023-05-03T10:03:17;16.27;;;6.28;;
7338;SDS011;33747;49.524;8.390;2023-05-03T10:05:48;10.02;;;5.45;;
7338;SDS011;33747;49.524;8.390;2023-05-03T10:08:32;10.55;;;6.15;;
7338;SDS011;33747;49.524;8.390;2023-05-03T10:10:59;10.98;;;6.22;;
7338;SDS011;33747;49.524;8.390;2023-05-03T10:13:26;11.07;;;5.45;;
7338;SDS011;33747;49.524;8.390;2023-05-03T10:16:06;13.43;;;6.07;;
7338;SDS011;33747;49.524;8.390;2023-05-03T10:18:36;9.73;;;5.53;;
7338;SDS011;33747;49.524;8.390;2023-05-03T10:21:11;12.80;;;5.95;;
7338;SDS011;33747;49.524;8.390;2023-05-03T10:26:40;13.73;;;6.32;;
7338;SDS011;33747;49.524;8.390;2023-05-03T10:29:42;9.27;;;6.15;;
7338;SDS011;33747;49.524;8.390;2023-05-03T10:31:57;16.50;;;6.95;;
7338;SDS011;33747;49.524;8.390;2023-05-03T10:34:23;18.77;;;6.97;;
7338;SDS011;33747;49.524;8.390;2023-05-03T10:36:52;8.63;;;5.68;;
7338;SDS011;33747;49.524;8.390;2023-05-03T10:39:18;7.88;;;6.22;;
7338;SDS011;33747;49.524;8.390;2023-05-03T10:41:44;9.15;;;5.35;;
7338;SDS011;33747;49.524;8.390;2023-05-03T10:44:24;10.07;;;6.07;;
7338;SDS011;33747;49.524;8.390;2023-05-03T10:46:52;10.85;;;5.95;;
7338;SDS011;33747;49.524;8.390;2023-05-03T10:49:18;12.20;;;6.25;;
7338;SDS011;33747;49.524;8.390;2023-05-03T10:51:49;12.73;;;5.80;;
7338;SDS011;33747;49.524;8.390;2023-05-03T10:54:14;9.40;;;5.13;;
7338;SDS011;33747;49.524;8.390;2023-05-03T10:56:48;11.07;;;6.35;;
7338;SDS011;33747;49.524;8.390;2023-05-03T10:59:14;9.52;;;5.90;;
7338;SDS011;33747;49.524;8.390;2023-05-03T11:01:39;12.38;;;5.55;;
7338;SDS011;33747;49.524;8.390;2023-05-03T11:04:12;9.40;;;5.20;;
7338;SDS011;33747;49.524;8.390;2023-05-03T11:06:47;10.80;;;4.65;;
7338;SDS011;33747;49.524;8.390;2023-05-03T11:09:15;8.85;;;5.93;;
7338;SDS011;33747;49.524;8.390;2023-05-03T11:11:41;8.85;;;4.85;;
7338;SDS011;33747;49.524;8.390;2023-05-03T11:14:07;9.98;;;5.13;;
7338;SDS011;33747;49.524;8.390;2023-05-03T11:16:34;11.35;;;6.28;;
7338;SDS011;33747;49.524;8.390;2023-05-03T11:19:00;10.77;;;5.28;;
7338;SDS011;33747;49.524;8.390;2023-05-03T11:21:26;10.77;;;5.80;;
7338;SDS011;33747;49.524;8.390;2023-05-03T11:23:51;13.20;;;5.70;;
7338;SDS011;33747;49.524;8.390;2023-05-03T11:26:17;11.60;;;5.45;;
7338;SDS011;33747;49.524;8.390;2023-05-03T11:28:44;9.90;;;5.30;;
7338;SDS011;33747;49.524;8.390;2023-05-03T11:31:10;10.68;;;5.63;;
7338;SDS011;33747;49.524;8.390;2023-05-03T11:33:37;8.10;;;4.72;;
7338;SDS011;33747;49.524;8.390;2023-05-03T11:36:04;12.15;;;5.72;;
7338;SDS011;33747;49.524;8.390;2023-05-03T11:38:31;8.48;;;5.03;;
7338;SDS011;33747;49.524;8.390;2023-05-03T11:40:57;12.80;;;5.32;;
7338;SDS011;33747;49.524;8.390;2023-05-03T11:43:22;7.97;;;4.75;;
7338;SDS011;33747;49.524;8.390;2023-05-03T11:45:49;9.45;;;4.82;;
7338;SDS011;33747;49.524;8.390;2023-05-03T11:48:16;7.45;;;4.32;;
7338;SDS011;33747;49.524;8.390;2023-05-03T11:50:45;7.63;;;5.20;;
7338;SDS011;33747;49.524;8.390;2023-05-03T11:53:12;7.72;;;5.05;;
7338;SDS011;33747;49.524;8.390;2023-05-03T11:55:42;11.75;;;4.80;;
7338;SDS011;33747;49.524;8.390;2023-05-03T11:58:23;10.35;;;4.45;;
7338;SDS011;33747;49.524;8.390;2023-05-03T12:00:50;15.70;;;5.47;;
7338;SDS011;33747;49.524;8.390;2023-05-03T12:03:20;8.40;;;5.28;;
7338;SDS011;33747;49.524;8.390;2023-05-03T12:05:46;10.43;;;4.15;;
7338;SDS011;33747;49.524;8.390;2023-05-03T12:08:12;8.45;;;4.00;;
7338;SDS011;33747;49.524;8.390;2023-05-03T12:10:38;10.20;;;5.22;;
7338;SDS011;33747;49.524;8.390;2023-05-03T12:13:04;8.20;;;4.97;;
7338;SDS011;33747;49.524;8.390;2023-05-03T12:15:31;14.68;;;5.35;;
7338;SDS011;33747;49.524;8.390;2023-05-03T12:17:58;9.40;;;5.00;;
7338;SDS011;33747;49.524;8.390;2023-05-03T12:20:25;6.28;;;4.38;;
7338;SDS011;33747;49.524;8.390;2023-05-03T12:22:55;7.10;;;4.53;;
7338;SDS011;33747;49.524;8.390;2023-05-03T12:25:21;6.57;;;4.25;;
7338;SDS011;33747;49.524;8.390;2023-05-03T12:27:47;13.88;;;5.32;;
7338;SDS011;33747;49.524;8.390;2023-05-03T12:30:12;10.05;;;5.47;;
7338;SDS011;33747;49.524;8.390;2023-05-03T12:32:38;14.40;;;5.00;;
7338;SDS011;33747;49.524;8.390;2023-05-03T12:35:04;7.30;;;3.83;;
7338;SDS011;33747;49.524;8.390;2023-05-03T12:37:30;8.20;;;4.50;;
7338;SDS011;33747;49.524;8.390;2023-05-03T12:39:56;6.22;;;4.47;;
7338;SDS011;33747;49.524;8.390;2023-05-03T12:42:21;11.40;;;4.65;;
7338;SDS011;33747;49.524;8.390;2023-05-03T12:44:46;7.45;;;4.35;;
7338;SDS011;33747;49.524;8.390;2023-05-03T12:47:12;8.00;;;4.13;;
7338;SDS011;33747;49.524;8.390;2023-05-03T12:49:37;8.32;;;4.97;;
7338;SDS011;33747;49.524;8.390;2023-05-03T12:52:03;7.50;;;4.32;;
7338;SDS011;33747;49.524;8.390;2023-05-03T12:54:28;6.40;;;4.22;;
7338;SDS011;33747;49.524;8.390;2023-05-03T12:56:54;5.57;;;4.22;;
7338;SDS011;33747;49.524;8.390;2023-05-03T12:59:19;12.23;;;3.97;;
7338;SDS011;33747;49.524;8.390;2023-05-03T13:01:45;7.68;;;4.38;;
7338;SDS011;33747;49.524;8.390;2023-05-03T13:04:10;6.82;;;4.20;;
7338;SDS011;33747;49.524;8.390;2023-05-03T13:06:36;6.38;;;4.47;;
7338;SDS011;33747;49.524;8.390;2023-05-03T13:09:02;8.20;;;3.92;;
7338;SDS011;33747;49.524;8.390;2023-05-03T13:11:29;6.57;;;3.58;;
7338;SDS011;33747;49.524;8.390;2023-05-03T13:13:55;7.38;;;4.22;;
7338;SDS011;33747;49.524;8.390;2023-05-03T13:16:20;10.38;;;4.03;;
7338;SDS011;33747;49.524;8.390;2023-05-03T13:18:46;8.10;;;4.13;;
7338;SDS011;33747;49.524;8.390;2023-05-03T13:21:12;8.32;;;4.13;;
7338;SDS011;33747;49.524;8.390;2023-05-03T13:23:37;6.65;;;4.30;;
7338;SDS011;33747;49.524;8.390;2023-05-03T13:26:03;9.88;;;3.88;;
7338;SDS011;33747;49.524;8.390;2023-05-03T13:28:28;6.30;;;3.92;;
7338;SDS011;33747;49.524;8.390;2023-05-03T13:30:54;7.13;;;3.15;;
7338;SDS011;33747;49.524;8.390;2023-05-03T13:33:20;7.45;;;3.88;;
7338;SDS011;33747;49.524;8.390;2023-05-03T13:35:45;7.88;;;3.92;;
7338;SDS011;33747;49.524;8.390;2023-05-03T13:38:11;5.55;;;2.95;;
7338;SDS011;33747;49.524;8.390;2023-05-03T13:40:36;5.90;;;3.20;;
7338;SDS011;33747;49.524;8.390;2023-05-03T13:43:01;7.25;;;2.97;;
7338;SDS011;33747;49.524;8.390;2023-05-03T13:45:27;9.93;;;3.50;;
7338;SDS011;33747;49.524;8.390;2023-05-03T13:47:52;8.98;;;3.17;;
7338;SDS011;33747;49.524;8.390;2023-05-03T13:50:17;6.60;;;3.58;;
7338;SDS011;33747;49.524;8.390;2023-05-03T13:52:43;5.82;;;2.63;;
7338;SDS011;33747;49.524;8.390;2023-05-03T13:55:08;5.05;;;3.38;;
7338;SDS011;33747;49.524;8.390;2023-05-03T13:57:34;11.18;;;3.10;;
7338;SDS011;33747;49.524;8.390;2023-05-03T14:00:00;10.35;;;2.83;;
7338;SDS011;33747;49.524;8.390;2023-05-03T14:02:25;8.43;;;2.63;;
7338;SDS011;33747;49.524;8.390;2023-05-03T14:04:51;5.93;;;3.22;;
7338;SDS011;33747;49.524;8.390;2023-05-03T14:07:17;2.70;;;2.13;;
7338;SDS011;33747;49.524;8.390;2023-05-03T14:09:43;9.18;;;2.80;;
7338;SDS011;33747;49.524;8.390;2023-05-03T14:12:08;4.35;;;2.92;;
7338;SDS011;33747;49.524;8.390;2023-05-03T14:14:33;6.80;;;2.90;;
7338;SDS011;33747;49.524;8.390;2023-05-03T14:17:00;9.23;;;2.70;;
7338;SDS011;33747;49.524;8.390;2023-05-03T14:19:26;6.43;;;2.55;;
7338;SDS011;33747;49.524;8.390;2023-05-03T14:21:54;6.88;;;3.00;;
7338;SDS011;33747;49.524;8.390;2023-05-03T14:24:22;8.00;;;3.28;;
7338;SDS011;33747;49.524;8.390;2023-05-03T14:26:48;3.75;;;2.60;;
7338;SDS011;33747;49.524;8.390;2023-05-03T14:29:13;7.18;;;2.75;;
7338;SDS011;33747;49.524;8.390;2023-05-03T14:31:39;4.80;;;2.60;;
7338;SDS011;33747;49.524;8.390;2023-05-03T14:34:04;4.03;;;2.53;;
7338;SDS011;33747;49.524;8.390;2023-05-03T14:36:29;5.15;;;2.50;;
7338;SDS011;33747;49.524;8.390;2023-05-03T14:38:59;3.85;;;2.50;;
7338;SDS011;33747;49.524;8.390;2023-05-03T14:41:25;8.70;;;2.50;;
7338;SDS011;33747;49.524;8.390;2023-05-03T14:43:51;3.33;;;2.30;;
7338;SDS011;33747;49.524;8.390;2023-05-03T14:46:16;5.90;;;2.40;;
7338;SDS011;33747;49.524;8.390;2023-05-03T14:48:41;4.05;;;2.40;;
7338;SDS011;33747;49.524;8.390;2023-05-03T14:51:07;3.78;;;2.13;;
7338;SDS011;33747;49.524;8.390;2023-05-03T14:53:32;4.70;;;2.47;;
7338;SDS011;33747;49.524;8.390;2023-05-03T14:55:58;7.15;;;2.35;;